Time;durP1;ratioP1;P1;durP2;ratioP2;P2;SDS_P1;SDS_P2;PMS_P1;PMS_P2;Temp;Humidity;BMP_temperature;BMP_pressure;BME280_temperature;BME280_humidity;BME280_pressure;Samples;Min_cycle;Max_cycle;Signal;HPM_P1;HPM_P2
2022/06/12 00:00:54;;;;;;;20.45;3.45;;;15.30;99.90;;;;;;5054136;28;20104;-62
2022/06/12 00:03:22;;;;;;;26.33;4.30;;;15.30;99.90;;;;;;5055058;28;20036;-66
2022/06/12 00:05:50;;;;;;;18.00;3.80;;;15.20;99.90;;;;;;5055413;28;20036;-64
2022/06/12 00:08:17;;;;;;;20.00;4.70;;;15.20;99.90;;;;;;5055013;28;20017;-64
2022/06/12 00:10:46;;;;;;;20.50;4.78;;;15.20;99.90;;;;;;5055003;28;20021;-63
2022/06/12 00:13:17;;;;;;;20.17;4.20;;;15.20;99.90;;;;;;5053453;28;20534;-64
2022/06/12 00:15:43;;;;;;;25.75;3.53;;;15.20;99.90;;;;;;5054685;28;20048;-63
2022/06/12 00:18:08;;;;;;;21.75;3.67;;;15.20;99.90;;;;;;5055214;28;20021;-64
2022/06/12 00:20:34;;;;;;;24.08;5.03;;;15.20;99.90;;;;;;5055191;28;20025;-65
2022/06/12 00:23:05;;;;;;;21.73;4.20;;;15.20;99.90;;;;;;5053079;28;20041;-66
2022/06/12 00:25:30;;;;;;;21.42;5.10;;;15.20;99.90;;;;;;5053419;28;20084;-64
2022/06/12 00:27:57;;;;;;;28.45;4.78;;;15.20;99.90;;;;;;5054611;28;20482;-63
2022/06/12 00:30:25;;;;;;;24.60;4.68;;;15.10;99.90;;;;;;5054526;28;20041;-63
2022/06/12 00:32:52;;;;;;;14.38;3.95;;;15.20;99.90;;;;;;5054516;28;20078;-65
2022/06/12 00:35:26;;;;;;;25.65;5.20;;;15.20;99.90;;;;;;5054607;28;20021;-63
2022/06/12 00:37:52;;;;;;;22.67;4.18;;;15.10;99.90;;;;;;5054211;28;20024;-63
2022/06/12 00:40:18;;;;;;;25.98;4.85;;;15.10;99.90;;;;;;5054499;28;20025;-65
2022/06/12 00:42:51;;;;;;;24.63;3.72;;;15.10;99.90;;;;;;5054392;28;20017;-64
2022/06/12 00:45:40;;;;;;;25.77;3.92;;;15.10;99.90;;;;;;5054226;28;20029;-64
2022/06/12 00:48:19;;;;;;;23.02;4.55;;;15.10;99.90;;;;;;5054152;28;20455;-63
2022/06/12 00:50:57;;;;;;;29.40;4.40;;;15.10;99.90;;;;;;5053960;28;20028;-67
2022/06/12 00:53:28;;;;;;;19.67;4.35;;;15.10;99.90;;;;;;5054187;28;20450;-64
2022/06/12 00:55:58;;;;;;;21.15;4.97;;;15.10;99.90;;;;;;5053945;28;20107;-67
2022/06/12 00:58:27;;;;;;;29.95;4.53;;;15.10;99.90;;;;;;5053525;28;20070;-63
2022/06/12 01:00:54;;;;;;;23.92;5.80;;;15.10;99.90;;;;;;5054308;28;20028;-63
2022/06/12 01:03:20;;;;;;;19.92;4.85;;;15.10;99.90;;;;;;5053887;28;20123;-64
2022/06/12 01:08:31;;;;;;;24.10;4.55;;;15.10;99.90;;;;;;5053795;28;20078;-64
2022/06/12 01:11:03;;;;;;;25.90;5.22;;;15.10;99.90;;;;;;5053709;28;20090;-67
2022/06/12 01:13:40;;;;;;;23.88;6.00;;;15.10;99.90;;;;;;5054086;28;20021;-64
2022/06/12 01:16:14;;;;;;;28.85;4.85;;;15.10;99.90;;;;;;5053407;28;20029;-64
2022/06/12 01:18:45;;;;;;;31.33;5.88;;;15.00;99.90;;;;;;5053254;28;20461;-64
2022/06/12 01:21:44;;;;;;;25.35;5.85;;;15.00;99.90;;;;;;5053181;28;20024;-65
2022/06/12 01:24:29;;;;;;;25.65;5.72;;;15.00;99.90;;;;;;5053418;28;20131;-64
2022/06/12 01:27:14;;;;;;;25.83;4.80;;;15.00;99.90;;;;;;5052732;28;20394;-64
2022/06/12 01:30:03;;;;;;;24.45;4.72;;;15.00;99.90;;;;;;5052971;28;20570;-64
2022/06/12 01:32:46;;;;;;;19.88;4.47;;;15.10;99.90;;;;;;5053366;28;20041;-66
2022/06/12 01:35:20;;;;;;;26.33;5.43;;;15.00;99.90;;;;;;5053296;28;20454;-63
2022/06/12 01:37:59;;;;;;;28.13;6.20;;;15.00;99.90;;;;;;5052905;28;20035;-64
2022/06/12 01:40:36;;;;;;;20.58;4.38;;;15.00;99.90;;;;;;5051699;28;20083;-65
2022/06/12 01:43:13;;;;;;;29.75;6.10;;;15.10;99.90;;;;;;5053207;28;20029;-64
2022/06/12 01:46:24;;;;;;;30.73;5.10;;;15.00;99.90;;;;;;5051695;28;20021;-66
2022/06/12 01:49:08;;;;;;;24.15;4.40;;;15.00;99.90;;;;;;5050192;28;20044;-68
2022/06/12 01:51:48;;;;;;;26.83;5.78;;;15.00;99.90;;;;;;5052777;28;20032;-63
2022/06/12 01:54:46;;;;;;;32.75;5.55;;;15.00;99.90;;;;;;5052896;28;20090;-64
2022/06/12 01:57:12;;;;;;;27.90;5.15;;;15.00;99.90;;;;;;5052751;28;20029;-63
2022/06/12 01:59:48;;;;;;;26.17;5.57;;;15.00;99.90;;;;;;5052498;28;20362;-66
2022/06/12 02:02:20;;;;;;;31.08;7.15;;;15.00;99.90;;;;;;5052437;28;20036;-66
2022/06/12 02:05:00;;;;;;;31.15;4.97;;;15.10;99.90;;;;;;5053102;28;20032;-65
2022/06/12 02:07:29;;;;;;;27.67;5.10;;;15.00;99.90;;;;;;5050944;28;20032;-67
2022/06/12 02:10:03;;;;;;;29.27;6.60;;;15.00;99.90;;;;;;5052687;28;20029;-65
2022/06/12 02:15:25;;;;;;;30.08;6.82;;;15.10;99.90;;;;;;5052033;28;20090;-64
2022/06/12 02:17:58;;;;;;;32.38;5.90;;;15.00;99.90;;;;;;5052347;28;20455;-62
2022/06/12 02:20:29;;;;;;;31.48;6.80;;;15.00;99.90;;;;;;5052345;28;20021;-65
2022/06/12 02:22:56;;;;;;;34.17;6.28;;;15.00;99.90;;;;;;5052112;28;20029;-64
2022/06/12 02:25:30;;;;;;;29.23;5.97;;;15.00;99.90;;;;;;5051898;28;20516;-63
2022/06/12 02:28:01;;;;;;;31.75;6.82;;;15.00;99.90;;;;;;5051765;28;20017;-63
2022/06/12 02:30:33;;;;;;;32.65;5.65;;;15.00;99.90;;;;;;5051970;28;20073;-64
2022/06/12 02:33:01;;;;;;;33.63;6.53;;;15.00;99.90;;;;;;5051905;28;20037;-63
2022/06/12 02:35:45;;;;;;;28.48;5.35;;;15.00;99.90;;;;;;5052003;28;20089;-63
2022/06/12 02:38:16;;;;;;;22.45;5.70;;;14.90;99.90;;;;;;5051268;28;20025;-66
2022/06/12 02:40:53;;;;;;;29.73;6.25;;;14.90;99.90;;;;;;5052045;28;20074;-64
2022/06/12 02:43:25;;;;;;;24.92;5.22;;;14.90;99.90;;;;;;5050633;28;20210;-63
2022/06/12 02:46:00;;;;;;;;;;;14.90;99.90;;;;;;5052365;28;20024;-66
2022/06/12 02:48:26;;;;;;;23.85;6.75;;;14.90;99.90;;;;;;5051947;28;19958;-63
2022/06/12 02:51:11;;;;;;;22.83;5.10;;;14.80;99.90;;;;;;5051742;28;20048;-66
2022/06/12 02:53:46;;;;;;;24.05;5.85;;;14.80;99.90;;;;;;5051717;28;20017;-67
2022/06/12 02:56:25;;;;;;;20.98;5.60;;;14.80;99.90;;;;;;5051620;28;20146;-63
2022/06/12 02:59:30;;;;;;;28.33;5.82;;;14.80;99.90;;;;;;5051897;28;20036;-64
2022/06/12 03:01:56;;;;;;;28.20;6.65;;;14.70;99.90;;;;;;5051060;28;20382;-64
2022/06/12 03:04:27;;;;;;;25.10;5.80;;;14.80;99.90;;;;;;5050222;28;20033;-63
2022/06/12 03:06:53;;;;;;;19.75;6.03;;;14.80;99.90;;;;;;5051975;28;20028;-63
2022/06/12 03:09:18;;;;;;;28.33;6.57;;;14.70;99.90;;;;;;5052037;28;20020;-62
2022/06/12 03:11:46;;;;;;;25.42;5.57;;;14.70;99.90;;;;;;5051771;28;20067;-64
2022/06/12 03:14:16;;;;;;;25.75;6.55;;;14.70;99.90;;;;;;5051649;28;20013;-64
2022/06/12 03:16:44;;;;;;;31.38;7.20;;;14.70;99.90;;;;;;5051650;28;20484;-63
2022/06/12 03:19:18;;;;;;;24.05;5.57;;;14.70;99.90;;;;;;5051686;28;20021;-64
2022/06/12 03:22:02;;;;;;;27.05;6.15;;;14.70;99.90;;;;;;5051722;28;20021;-63
2022/06/12 03:25:15;;;;;;;26.17;5.25;;;14.70;99.90;;;;;;5051559;28;20044;-66
2022/06/12 03:28:14;;;;;;;25.48;6.05;;;14.60;99.90;;;;;;4996840;28;20065;-63
2022/06/12 03:30:48;;;;;;;28.90;7.40;;;14.60;99.90;;;;;;5051478;28;20230;-64
2022/06/12 03:33:31;;;;;;;30.45;7.00;;;14.70;99.90;;;;;;5051128;28;20017;-63
2022/06/12 03:36:11;;;;;;;27.05;6.38;;;14.80;99.90;;;;;;5051169;28;20436;-64
2022/06/12 03:38:52;;;;;;;22.35;6.38;;;14.90;99.90;;;;;;5051172;28;20017;-67
2022/06/12 03:41:37;;;;;;;27.20;5.90;;;15.00;99.90;;;;;;5051398;28;20018;-63
2022/06/12 03:44:16;;;;;;;28.40;5.75;;;15.10;99.90;;;;;;5051544;28;20060;-63
2022/06/12 03:46:58;;;;;;;27.00;5.43;;;15.20;99.90;;;;;;5051286;28;20094;-66
2022/06/12 03:49:48;;;;;;;26.30;4.78;;;15.30;99.90;;;;;;5053442;28;20023;-66
2022/06/12 03:52:48;;;;;;;23.58;4.68;;;15.30;99.90;;;;;;5053444;28;20068;-64
2022/06/12 03:58:20;;;;;;;21.75;4.32;;;15.50;99.90;;;;;;5054844;28;20412;-65
2022/06/12 04:00:49;;;;;;;20.40;4.00;;;15.60;99.90;;;;;;5054760;28;20029;-65
2022/06/12 04:03:28;;;;;;;17.63;4.65;;;15.70;99.90;;;;;;5052615;28;20021;-64
2022/06/12 04:06:05;;;;;;;16.00;3.42;;;15.70;99.90;;;;;;5052323;28;20028;-63
2022/06/12 04:08:46;;;;;;;19.73;3.72;;;15.80;99.90;;;;;;5052231;28;20049;-67
2022/06/12 04:11:14;;;;;;;13.93;4.00;;;15.90;99.90;;;;;;5052444;28;20024;-66
2022/06/12 04:13:41;;;;;;;18.27;3.17;;;15.90;99.90;;;;;;5053340;28;20043;-65
2022/06/12 04:16:18;;;;;;;14.10;3.28;;;16.00;99.90;;;;;;5053009;28;20443;-64
2022/06/12 04:18:44;;;;;;;15.02;3.13;;;16.10;99.90;;;;;;5074656;28;20370;-64
2022/06/12 04:21:23;;;;;;;15.48;2.65;;;16.10;99.90;;;;;;5053291;28;20025;-64
2022/06/12 04:24:13;;;;;;;12.00;2.88;;;16.20;99.90;;;;;;5050106;28;20355;-64
2022/06/12 04:26:43;;;;;;;9.75;2.80;;;16.30;99.90;;;;;;5052592;28;20021;-64
2022/06/12 04:29:12;;;;;;;19.48;4.05;;;16.30;99.90;;;;;;5053648;28;20024;-66
2022/06/12 04:31:43;;;;;;;14.27;3.53;;;16.30;99.90;;;;;;5053273;28;20048;-63
2022/06/12 04:34:23;;;;;;;17.37;3.00;;;16.30;99.90;;;;;;5053074;28;20486;-64
2022/06/12 04:36:55;;;;;;;21.45;2.88;;;16.40;99.90;;;;;;5051775;28;20254;-66
2022/06/12 04:39:24;;;;;;;11.43;2.92;;;16.40;99.90;;;;;;5052926;28;20496;-63
2022/06/12 04:41:51;;;;;;;12.02;2.85;;;16.40;99.90;;;;;;5053287;28;20024;-64
2022/06/12 04:44:17;;;;;;;14.88;3.10;;;16.50;99.90;;;;;;5053124;28;20366;-64
2022/06/12 04:46:46;;;;;;;10.05;2.15;;;16.70;99.90;;;;;;5053290;28;20080;-64
2022/06/12 04:49:17;;;;;;;5.60;2.05;;;16.80;99.90;;;;;;5052607;28;20467;-65
2022/06/12 04:51:43;;;;;;;10.27;3.35;;;17.00;99.90;;;;;;5052903;28;20046;-66
2022/06/12 04:54:09;;;;;;;12.23;2.53;;;17.20;99.90;;;;;;5054310;28;20020;-64
2022/06/12 04:56:35;;;;;;;15.15;3.10;;;17.40;99.90;;;;;;5054266;28;20040;-62
2022/06/12 04:59:02;;;;;;;10.73;2.90;;;17.60;99.90;;;;;;5054213;28;20055;-67
2022/06/12 05:01:28;;;;;;;6.95;2.03;;;17.80;99.90;;;;;;5053313;28;20013;-66
2022/06/12 05:03:54;;;;;;;9.52;2.58;;;17.90;99.90;;;;;;5054536;28;20040;-62
2022/06/12 05:06:20;;;;;;;8.85;2.15;;;18.00;99.90;;;;;;5052621;28;20078;-64
2022/06/12 05:08:47;;;;;;;17.08;2.50;;;18.20;99.90;;;;;;5054244;28;20025;-67
2022/06/12 05:11:13;;;;;;;8.30;2.13;;;18.30;99.90;;;;;;5054101;28;20017;-64
2022/06/12 05:13:39;;;;;;;9.05;2.78;;;18.40;99.90;;;;;;5054049;28;20032;-64
2022/06/12 05:16:07;;;;;;;14.43;2.85;;;18.50;99.90;;;;;;5053966;28;20017;-65
2022/06/12 05:18:32;;;;;;;9.45;2.50;;;18.70;99.90;;;;;;5054002;28;20075;-64
2022/06/12 05:20:58;;;;;;;13.60;2.50;;;18.80;99.90;;;;;;5053716;28;20025;-65
2022/06/12 05:23:24;;;;;;;10.23;2.20;;;18.80;99.90;;;;;;5054654;28;20024;-64
2022/06/12 05:25:50;;;;;;;11.80;2.45;;;18.70;99.90;;;;;;5054369;28;20078;-66
2022/06/12 05:28:17;;;;;;;13.32;2.50;;;18.60;99.90;;;;;;5052056;28;20067;-62
2022/06/12 05:30:44;;;;;;;11.57;2.85;;;18.60;99.90;;;;;;5053397;28;20118;-66
2022/06/12 05:33:11;;;;;;;10.55;2.47;;;18.60;99.90;;;;;;5053189;28;20020;-66
2022/06/12 05:35:38;;;;;;;9.02;2.17;;;18.80;99.90;;;;;;5052066;28;20402;-64
2022/06/12 05:38:05;;;;;;;9.52;2.15;;;19.50;99.90;;;;;;5053386;28;20108;-63
2022/06/12 05:40:34;;;;;;;12.30;2.47;;;20.20;99.90;;;;;;5053142;28;20028;-67
2022/06/12 05:43:00;;;;;;;12.50;2.05;;;20.90;99.90;;;;;;5053358;28;20021;-63
2022/06/12 05:45:28;;;;;;;10.65;2.15;;;21.30;99.90;;;;;;5053791;28;20067;-64
2022/06/12 05:48:02;;;;;;;10.40;2.22;;;21.90;99.90;;;;;;5053039;28;20025;-64
2022/06/12 05:50:31;;;;;;;9.73;1.70;;;22.70;99.90;;;;;;5053449;28;20021;-64
2022/06/12 05:52:57;;;;;;;11.98;1.90;;;23.40;99.90;;;;;;5051805;28;20017;-63
2022/06/12 05:55:23;;;;;;;9.95;2.35;;;23.90;98.80;;;;;;5053191;28;20065;-64
2022/06/12 05:57:49;;;;;;;13.10;3.03;;;24.10;98.30;;;;;;5053200;28;20025;-63
2022/06/12 06:00:19;;;;;;;8.50;2.38;;;24.30;98.20;;;;;;5052938;28;20025;-63
2022/06/12 06:02:45;;;;;;;14.98;2.20;;;24.70;97.10;;;;;;5052723;28;20025;-65
2022/06/12 06:05:12;;;;;;;6.38;1.80;;;25.30;96.30;;;;;;5053068;28;20029;-65
2022/06/12 06:07:38;;;;;;;10.68;2.65;;;25.80;95.30;;;;;;5053071;28;20074;-65
2022/06/12 06:10:06;;;;;;;8.40;2.42;;;26.20;94.30;;;;;;5052978;28;20098;-63
2022/06/12 06:12:33;;;;;;;8.80;2.30;;;26.60;93.40;;;;;;5052758;28;20529;-64
2022/06/12 06:14:58;;;;;;;6.85;2.22;;;26.90;92.60;;;;;;5052635;28;20021;-66
2022/06/12 06:17:24;;;;;;;7.47;2.17;;;27.10;92.30;;;;;;5051669;28;20128;-68
2022/06/12 06:19:50;;;;;;;9.75;2.13;;;27.20;92.00;;;;;;5052832;28;20094;-65
2022/06/12 06:22:18;;;;;;;8.45;2.30;;;27.30;91.50;;;;;;5052851;28;20028;-63
2022/06/12 06:24:45;;;;;;;5.38;2.20;;;27.40;90.80;;;;;;5052708;28;20055;-63
2022/06/12 06:27:12;;;;;;;5.55;1.90;;;27.30;90.70;;;;;;5051126;28;20036;-64
2022/06/12 06:29:37;;;;;;;9.68;1.90;;;27.20;90.70;;;;;;5051697;28;20021;-63
2022/06/12 06:32:04;;;;;;;7.82;2.20;;;27.40;90.50;;;;;;5052583;28;20099;-64
2022/06/12 06:34:30;;;;;;;8.13;2.20;;;27.50;90.30;;;;;;5052439;28;20021;-66
2022/06/12 06:36:56;;;;;;;13.80;2.42;;;27.60;90.10;;;;;;5052358;28;20023;-64
2022/06/12 06:39:22;;;;;;;9.88;2.00;;;27.80;89.70;;;;;;5052398;28;20032;-67
2022/06/12 06:41:48;;;;;;;7.93;2.60;;;28.00;89.20;;;;;;5052554;28;20079;-64
2022/06/12 06:46:58;;;;;;;7.45;2.05;;;28.40;87.90;;;;;;5052060;28;20039;-64
2022/06/12 06:49:24;;;;;;;7.53;1.95;;;28.80;86.50;;;;;;5052083;28;20056;-65
2022/06/12 06:51:49;;;;;;;6.47;2.28;;;29.10;86.20;;;;;;5052268;28;20029;-64
2022/06/12 06:54:16;;;;;;;12.20;2.20;;;29.40;84.90;;;;;;5052100;28;20036;-64
2022/06/12 06:56:42;;;;;;;8.27;1.88;;;29.60;84.20;;;;;;5051642;28;20362;-64
2022/06/12 06:59:07;;;;;;;11.73;2.65;;;30.00;83.50;;;;;;5051877;28;20020;-64
2022/06/12 07:01:34;;;;;;;8.43;1.98;;;30.30;82.30;;;;;;5050755;28;20029;-64
2022/06/12 07:04:00;;;;;;;9.85;2.60;;;30.40;81.40;;;;;;5052205;28;20028;-67
2022/06/12 07:06:26;;;;;;;6.75;2.22;;;30.40;80.50;;;;;;5052095;28;20366;-63
2022/06/12 07:08:53;;;;;;;13.88;2.58;;;30.20;80.40;;;;;;5051683;28;20025;-66
2022/06/12 07:11:19;;;;;;;11.35;3.03;;;30.30;80.00;;;;;;5050558;28;20369;-64
2022/06/12 07:13:45;;;;;;;10.75;2.22;;;30.30;80.00;;;;;;5051903;28;20516;-67
2022/06/12 07:16:10;;;;;;;7.53;2.45;;;30.30;79.30;;;;;;5051943;28;20052;-64
2022/06/12 07:18:36;;;;;;;12.45;2.58;;;30.30;78.90;;;;;;5051917;28;20092;-65
2022/06/12 07:21:02;;;;;;;13.13;2.75;;;30.40;78.30;;;;;;5051921;28;20021;-64
2022/06/12 07:23:30;;;;;;;8.57;2.13;;;30.50;77.70;;;;;;5052625;28;20111;-64
2022/06/12 07:26:03;;;;;;;8.13;2.78;;;30.50;77.80;;;;;;5055405;28;20386;-66
2022/06/12 07:28:29;;;;;;;9.27;2.00;;;30.40;77.60;;;;;;5056039;28;20112;-67
2022/06/12 07:30:55;;;;;;;9.48;2.67;;;30.40;77.30;;;;;;5055765;28;20124;-67
2022/06/12 07:33:21;;;;;;;10.63;2.30;;;30.50;76.50;;;;;;5055476;28;20107;-64
2022/06/12 07:35:48;;;;;;;11.10;2.40;;;30.40;76.40;;;;;;5055801;28;20099;-67
2022/06/12 07:38:17;;;;;;;12.13;2.60;;;30.30;75.90;;;;;;5055325;28;20032;-64
2022/06/12 07:40:46;;;;;;;11.00;2.42;;;30.10;76.00;;;;;;5055535;28;20476;-64
2022/06/12 07:43:12;;;;;;;10.30;2.45;;;29.90;76.20;;;;;;5053859;28;20360;-64
2022/06/12 07:45:40;;;;;;;11.00;2.33;;;29.60;76.30;;;;;;5055569;28;20084;-65
2022/06/12 07:48:07;;;;;;;12.68;2.65;;;29.40;76.10;;;;;;5055404;28;20108;-65
2022/06/12 07:50:32;;;;;;;4.97;1.67;;;29.40;75.50;;;;;;5055583;28;20028;-64
2022/06/12 07:52:58;;;;;;;7.32;2.15;;;29.10;75.30;;;;;;5053898;28;20024;-67
2022/06/12 07:55:25;;;;;;;10.40;2.50;;;28.90;74.60;;;;;;5055789;28;20025;-67
2022/06/12 07:57:51;;;;;;;6.85;2.10;;;28.70;75.70;;;;;;5055538;28;20016;-65
2022/06/12 08:00:18;;;;;;;10.35;2.47;;;28.20;75.40;;;;;;5055548;28;20409;-64
2022/06/12 08:02:45;;;;;;;7.63;2.22;;;27.70;76.60;;;;;;5055558;28;20485;-64
2022/06/12 08:05:12;;;;;;;8.75;2.10;;;27.20;77.30;;;;;;5055065;28;20042;-65
2022/06/12 08:07:38;;;;;;;12.90;2.35;;;27.00;78.50;;;;;;5054131;28;20021;-64
2022/06/12 08:10:05;;;;;;;8.35;2.05;;;26.70;79.60;;;;;;5055367;28;20028;-63
2022/06/12 08:12:32;;;;;;;10.05;2.50;;;26.80;79.80;;;;;;5054795;28;20028;-63
2022/06/12 08:14:58;;;;;;;10.63;2.30;;;26.80;79.70;;;;;;5054609;28;20086;-64
2022/06/12 08:17:23;;;;;;;8.75;1.83;;;26.90;79.40;;;;;;5055028;28;20581;-63
2022/06/12 08:22:33;;;;;;;10.80;2.47;;;27.50;78.20;;;;;;5053551;28;20036;-67
2022/06/12 08:24:59;;;;;;;9.82;2.45;;;28.20;77.50;;;;;;5054861;28;20037;-64
2022/06/12 08:27:25;;;;;;;9.00;2.38;;;29.10;76.10;;;;;;5055077;28;20025;-64
2022/06/12 08:29:50;;;;;;;10.07;2.38;;;29.70;74.80;;;;;;5054532;28;20025;-64
2022/06/12 08:32:20;;;;;;;10.57;2.28;;;30.20;73.80;;;;;;5054838;28;20455;-63
2022/06/12 08:35:01;;;;;;;11.80;2.42;;;31.00;72.70;;;;;;5066567;28;20092;-65
2022/06/12 08:37:32;;;;;;;10.20;2.17;;;32.00;70.90;;;;;;5069821;28;20021;-64
2022/06/12 08:39:58;;;;;;;8.13;2.42;;;32.70;68.60;;;;;;5058547;28;20032;-64
2022/06/12 08:42:36;;;;;;;9.80;2.35;;;32.90;67.90;;;;;;5067982;28;20056;-66
2022/06/12 08:45:19;;;;;;;8.73;2.10;;;33.10;65.70;;;;;;5070360;28;20056;-66
2022/06/12 08:48:04;;;;;;;6.32;1.92;;;33.30;66.00;;;;;;5066253;28;20040;-66
2022/06/12 08:50:48;;;;;;;8.05;2.40;;;33.40;65.30;;;;;;5067675;28;20124;-67
2022/06/12 08:53:25;;;;;;;10.60;2.25;;;33.70;64.60;;;;;;5066597;28;20088;-65
2022/06/12 08:56:20;;;;;;;10.20;2.40;;;33.80;64.30;;;;;;5073179;28;20024;-63
2022/06/12 08:58:56;;;;;;;12.57;2.60;;;34.20;63.70;;;;;;5070683;28;20037;-65
2022/06/12 09:01:22;;;;;;;10.52;2.60;;;34.60;63.50;;;;;;5065800;28;20086;-66
2022/06/12 09:03:52;;;;;;;10.18;2.40;;;34.80;62.70;;;;;;5051669;28;20033;-65
2022/06/12 09:06:37;;;;;;;11.57;2.60;;;34.80;62.40;;;;;;5052987;28;20404;-64
2022/06/12 09:09:19;;;;;;;10.48;2.55;;;34.70;62.10;;;;;;5052626;28;20082;-63
2022/06/12 09:11:51;;;;;;;14.65;2.92;;;34.70;62.80;;;;;;5052586;28;20498;-66
2022/06/12 09:14:23;;;;;;;10.60;2.63;;;34.70;62.90;;;;;;5067148;28;20029;-66
2022/06/12 09:17:20;;;;;;;13.27;2.80;;;34.70;63.10;;;;;;5073467;28;20350;-65
2022/06/12 09:20:01;;;;;;;9.73;2.45;;;35.00;62.80;;;;;;5073818;28;20020;-67
2022/06/12 09:22:48;;;;;;;11.82;3.25;;;35.30;61.80;;;;;;5073810;28;20346;-64
2022/06/12 09:25:40;;;;;;;10.63;2.55;;;35.40;62.10;;;;;;5074016;28;20040;-63
2022/06/12 09:28:36;;;;;;;9.90;3.05;;;35.60;61.50;;;;;;5073891;28;20021;-69
2022/06/12 09:31:50;;;;;;;8.50;2.50;;;35.90;60.60;;;;;;5073294;28;20466;-64
2022/06/12 09:34:39;;;;;;;12.43;3.25;;;36.10;60.00;;;;;;4996620;28;20034;-64
2022/06/12 09:40:32;;;;;;;7.72;2.45;;;36.00;58.60;;;;;;5051095;28;20036;-63
2022/06/12 09:43:25;;;;;;;10.63;2.42;;;36.00;58.00;;;;;;5052123;28;20037;-69
2022/06/12 09:46:05;;;;;;;8.32;1.98;;;36.20;57.40;;;;;;5050763;28;20029;-64
2022/06/12 09:48:52;;;;;;;13.65;2.63;;;36.30;57.10;;;;;;5051448;28;20108;-64
2022/06/12 09:51:49;;;;;;;9.35;2.38;;;36.30;56.70;;;;;;5051555;28;20024;-66
2022/06/12 09:54:44;;;;;;;10.45;2.60;;;36.10;56.20;;;;;;5046670;28;20066;-68
2022/06/12 09:57:42;;;;;;;10.20;2.92;;;35.90;56.00;;;;;;5049650;28;20021;-64
2022/06/12 10:00:21;;;;;;;13.02;2.50;;;35.90;56.10;;;;;;5049665;28;20021;-66
2022/06/12 10:03:20;;;;;;;9.98;2.85;;;36.10;55.70;;;;;;5052439;28;20458;-68
2022/06/12 10:05:55;;;;;;;9.25;2.55;;;36.10;55.90;;;;;;5052887;28;20021;-64
2022/06/12 10:08:32;;;;;;;10.65;2.28;;;36.00;55.50;;;;;;5050781;28;20033;-65
2022/06/12 10:11:02;;;;;;;8.75;2.67;;;36.00;55.20;;;;;;5050301;28;20024;-65
2022/06/12 10:13:43;;;;;;;11.43;2.70;;;35.70;55.30;;;;;;5052170;28;20061;-68
2022/06/12 10:16:14;;;;;;;5.95;2.08;;;35.50;56.40;;;;;;5050385;28;20024;-64
2022/06/12 10:18:57;;;;;;;10.20;2.88;;;35.40;54.70;;;;;;5052293;28;20098;-66
2022/06/12 10:21:24;;;;;;;8.38;3.25;;;35.30;55.90;;;;;;5052537;28;20013;-67
2022/06/12 10:23:51;;;;;;;15.18;3.75;;;35.20;56.40;;;;;;5046903;28;20043;-65
2022/06/12 10:26:27;;;;;;;10.85;3.60;;;35.00;57.10;;;;;;5052208;28;20096;-62
2022/06/12 10:29:06;;;;;;;13.13;3.50;;;35.00;57.80;;;;;;5052489;28;20033;-65
2022/06/12 10:31:34;;;;;;;10.30;3.38;;;35.00;58.10;;;;;;5052035;28;20050;-66
2022/06/12 10:34:24;;;;;;;11.70;3.25;;;35.10;58.40;;;;;;5052477;28;20140;-64
2022/06/12 10:36:50;;;;;;;13.98;3.88;;;34.80;58.60;;;;;;5051697;28;20027;-64
2022/06/12 10:39:19;;;;;;;11.65;3.53;;;34.90;59.00;;;;;;5051457;28;20020;-64
2022/06/12 10:41:55;;;;;;;11.73;3.25;;;35.00;58.30;;;;;;5051554;28;20109;-69
2022/06/12 10:44:41;;;;;;;11.85;2.92;;;35.10;58.40;;;;;;5052051;28;20056;-65
2022/06/12 10:47:22;;;;;;;12.82;2.63;;;35.10;58.80;;;;;;5052064;28;20013;-64
2022/06/12 10:50:08;;;;;;;11.35;3.28;;;35.20;58.10;;;;;;5051938;28;20442;-65
2022/06/12 10:52:34;;;;;;;11.73;2.88;;;34.90;57.90;;;;;;5047396;28;20488;-67
2022/06/12 10:55:00;;;;;;;12.52;2.40;;;34.90;58.30;;;;;;5033484;28;20025;-67
2022/06/12 10:57:53;;;;;;;13.60;3.33;;;34.90;57.80;;;;;;5044614;28;20517;-64
2022/06/12 11:00:24;;;;;;;10.95;2.83;;;34.80;58.40;;;;;;5050479;28;20021;-68
2022/06/12 11:03:42;;;;;;;9.48;2.90;;;34.70;57.20;;;;;;5050769;28;20113;-65
2022/06/12 11:06:20;;;;;;;14.20;3.88;;;34.30;58.10;;;;;;5046848;28;20119;-66
2022/06/12 11:08:55;;;;;;;11.05;2.75;;;34.20;58.30;;;;;;5052178;28;20025;-64
2022/06/12 11:11:45;;;;;;;16.35;3.33;;;33.90;58.40;;;;;;5051737;28;20024;-64
2022/06/12 11:14:42;;;;;;;9.27;2.53;;;33.20;58.70;;;;;;5032632;28;20278;-66
2022/06/12 11:17:21;;;;;;;12.05;2.60;;;32.10;59.70;;;;;;5031618;28;20024;-66
2022/06/12 11:20:05;;;;;;;11.10;2.63;;;31.80;60.50;;;;;;5047775;28;20481;-64
2022/06/12 11:22:55;;;;;;;7.72;2.20;;;32.30;60.40;;;;;;5052188;28;20086;-64
2022/06/12 11:26:13;;;;;;;8.82;1.98;;;32.90;58.80;;;;;;5051738;28;20033;-65
2022/06/12 11:29:06;;;;;;;10.85;2.70;;;33.30;57.70;;;;;;5026903;28;20036;-66
2022/06/12 11:31:37;;;;;;;9.52;2.63;;;33.30;58.40;;;;;;5051848;28;20102;-66
2022/06/12 11:34:24;;;;;;;10.82;3.10;;;33.10;58.30;;;;;;5052366;28;20060;-64
2022/06/12 11:36:53;;;;;;;11.55;2.40;;;33.10;59.00;;;;;;5051928;28;20029;-65
2022/06/12 11:39:33;;;;;;;13.60;3.08;;;33.20;57.70;;;;;;5051894;28;20499;-63
2022/06/12 11:42:10;;;;;;;10.30;3.00;;;33.40;57.60;;;;;;5050408;28;20045;-67
2022/06/12 11:44:53;;;;;;;13.35;3.05;;;33.40;57.80;;;;;;5051913;28;20037;-65
2022/06/12 11:47:57;;;;;;;12.18;2.88;;;33.50;58.00;;;;;;5052169;28;20238;-65
2022/06/12 11:50:36;;;;;;;9.45;2.03;;;33.50;57.80;;;;;;5018775;28;20047;-64
2022/06/12 11:53:10;;;;;;;7.68;2.28;;;33.60;56.70;;;;;;5051962;28;20021;-67
2022/06/12 11:55:59;;;;;;;8.30;2.53;;;33.40;57.90;;;;;;5051544;28;20473;-64
2022/06/12 11:58:58;;;;;;;12.45;2.47;;;33.50;57.70;;;;;;5049599;28;20040;-65
2022/06/12 12:01:54;;;;;;;12.43;2.78;;;33.50;58.30;;;;;;5044668;28;20039;-66
2022/06/12 12:04:50;;;;;;;8.10;2.47;;;33.20;58.40;;;;;;5021659;28;20044;-65
2022/06/12 12:07:54;;;;;;;11.95;3.20;;;32.90;59.00;;;;;;5044152;28;20012;-65
2022/06/12 12:10:44;;;;;;;9.48;2.33;;;32.80;58.80;;;;;;5063881;28;20024;-64
2022/06/12 12:13:16;;;;;;;13.33;3.23;;;32.80;58.60;;;;;;5054461;28;20298;-64
2022/06/12 12:15:48;;;;;;;9.50;2.15;;;33.00;58.80;;;;;;5053777;28;20278;-64
2022/06/12 12:18:40;;;;;;;9.23;2.17;;;32.30;58.60;;;;;;5054892;28;20024;-64
2022/06/12 12:21:30;;;;;;;6.72;2.22;;;31.70;59.90;;;;;;5043130;28;20064;-64
2022/06/12 12:23:58;;;;;;;11.93;2.40;;;31.70;59.30;;;;;;5053727;28;20079;-65
2022/06/12 12:26:35;;;;;;;13.30;2.80;;;31.80;60.10;;;;;;5054205;28;20036;-64
2022/06/12 12:29:04;;;;;;;10.85;2.60;;;31.90;60.20;;;;;;5054541;28;20056;-67
2022/06/12 12:31:31;;;;;;;9.68;2.50;;;32.00;60.40;;;;;;5054247;28;20041;-64
2022/06/12 12:34:00;;;;;;;9.02;2.30;;;31.90;60.20;;;;;;5054016;28;20426;-66
2022/06/12 12:42:30;;;;;;;15.07;3.23;;;30.60;61.70;;;;;;5054844;28;20362;-63
2022/06/12 12:45:17;;;;;;;10.55;2.65;;;30.30;62.20;;;;;;5054581;28;20037;-64
2022/06/12 12:47:44;;;;;;;16.80;3.58;;;30.10;62.30;;;;;;5043336;28;20029;-65
2022/06/12 12:50:16;;;;;;;13.38;3.03;;;29.70;63.40;;;;;;5053471;28;20029;-67
2022/06/12 12:52:54;;;;;;;12.23;2.92;;;29.30;63.60;;;;;;5053721;28;20362;-66
2022/06/12 12:55:21;;;;;;;15.20;2.78;;;29.00;65.00;;;;;;5053647;28;20024;-65
2022/06/12 12:57:47;;;;;;;11.40;2.72;;;28.60;66.40;;;;;;5053807;28;20025;-64
2022/06/12 13:00:15;;;;;;;9.88;2.72;;;28.10;67.40;;;;;;5053654;28;20525;-65
2022/06/12 13:03:04;;;;;;;9.40;2.45;;;27.50;67.30;;;;;;5053958;28;20029;-64
2022/06/12 13:05:48;;;;;;;14.90;2.95;;;27.00;67.30;;;;;;5051964;28;20374;-67
2022/06/12 13:08:29;;;;;;;12.85;2.78;;;26.60;69.30;;;;;;5052415;28;20033;-64
2022/06/12 13:11:27;;;;;;;15.93;3.70;;;26.30;70.70;;;;;;5051074;28;20025;-68
2022/06/12 13:14:11;;;;;;;14.50;2.78;;;25.80;72.50;;;;;;5051797;28;20021;-64
2022/06/12 13:16:53;;;;;;;13.48;2.70;;;25.50;71.90;;;;;;5052890;28;20025;-67
2022/06/12 13:19:49;;;;;;;10.40;2.88;;;25.20;73.20;;;;;;5053804;28;20426;-64
2022/06/12 13:22:26;;;;;;;12.95;2.90;;;24.70;74.50;;;;;;5052830;28;20037;-64
2022/06/12 13:25:05;;;;;;;18.42;3.38;;;24.40;75.10;;;;;;5052109;28;20040;-65
2022/06/12 13:27:45;;;;;;;12.77;2.58;;;24.30;76.00;;;;;;5050780;28;20017;-63
2022/06/12 13:30:25;;;;;;;8.88;2.45;;;24.30;77.20;;;;;;5051191;28;20037;-65
2022/06/12 13:32:51;;;;;;;16.23;3.10;;;24.30;77.40;;;;;;5050338;28;20623;-68
2022/06/12 13:35:42;;;;;;;10.93;2.42;;;24.20;77.90;;;;;;5050909;28;20087;-64
2022/06/12 13:38:39;;;;;;;10.50;3.00;;;24.20;76.20;;;;;;5050626;28;20036;-63
2022/06/12 13:41:06;;;;;;;14.93;3.58;;;24.10;76.90;;;;;;5043093;28;20064;-64
2022/06/12 13:43:36;;;;;;;12.18;3.10;;;24.00;78.10;;;;;;5052637;28;20028;-64